Depesze METAR lotnisk w Polsce

METAR – format kodowanego raportu o pogodzie używany w meteorologii lotniczej i prognozie pogody. METAR jest akronimem od ang. Meteorological Aerodrome Report. Typowy METAR zawiera informację o temperaturze, ciśnieniu, temperaturze punktu rosy, sile i kierunku wiatru, opadzie, pokrywie chmur, wysokości podstawy chmur, widzialności, lecz może zawierać też inne informacje (np. stan dróg startowych).

Warszawa-Okęcie (EPWA)

METAR = EPWA 271900Z 08007KT CAVOK 22/18 Q1015 NOSIG

STACJA......... EPWA - Warszawa-Okęcie (WAW)
POMIAR......... Wed Jul 27, 21:00 CEST
WIATR.......... wschodni (E) z prędkością 13 km/h
WIDZIALNOŚĆ.... powyżej 10 kilometrów
CHMURY......... bezchmurne niebo
TEMPERATURA.... 22°C
T.PUNKTU ROSY.. 18°C
WILGOTNOŚĆ..... 78%
CIŚNIENIE...... 1015 hPa
PROGNOZA....... bez nagłych zmian w ciągu 2h

Sprawdź też: Prognoza pogody Warszawa

Warszawa-Modlin (EPMO)

METAR = EPMO 271830Z 07005KT CAVOK 21/19 Q1014 =

STACJA......... EPMO - Warszawa-Modlin (WMI)
POMIAR......... Wed Jul 27, 20:30 CEST
WIATR.......... wschodni północno-wschodni (ENE) z prędkością 9 km/h
WIDZIALNOŚĆ.... powyżej 10 kilometrów
CHMURY......... bezchmurne niebo
TEMPERATURA.... 21°C
T.PUNKTU ROSY.. 19°C
WILGOTNOŚĆ..... 88%
CIŚNIENIE...... 1014 hPa

Sprawdź też: Prognoza pogody Nowy Dwór Mazowiecki

Kraków-Balice (EPKK)

METAR = EPKK 271900Z 15003KT 9999 -SHRA FEW046TCU 23/19 Q1015

STACJA......... EPKK - Kraków-Balice (KRK)
POMIAR......... Wed Jul 27, 21:00 CEST
WIATR.......... południowo południowo-wschodni (SSE) z prędkością 6 km/h
WIDZIALNOŚĆ.... powyżej 10 kilometrów
WARUNKI........ słaby: deszcz opad przelotny 
CHMURY......... zachmurzenie niewielkie (1/8-2/8)
TEMPERATURA.... 23°C
T.PUNKTU ROSY.. 19°C
WILGOTNOŚĆ..... 78%
CIŚNIENIE...... 1015 hPa

Sprawdź też: Prognoza pogody Kraków

Łódź-Lublinek (EPLL)

METAR = EPLL 271900Z 10006KT CAVOK 20/19 Q1014

STACJA......... EPLL - Łódź-Lublinek (LCJ)
POMIAR......... Wed Jul 27, 21:00 CEST
WIATR.......... wschodni (E) z prędkością 11 km/h
WIDZIALNOŚĆ.... powyżej 10 kilometrów
CHMURY......... bezchmurne niebo
TEMPERATURA.... 20°C
T.PUNKTU ROSY.. 19°C
WILGOTNOŚĆ..... 94%
CIŚNIENIE...... 1014 hPa

Sprawdź też: Prognoza pogody Łódź

Wrocław-Strachowice (EPWR)

METAR = EPWR 271900Z 30017KT 9999 FEW040CB 23/17 Q1014

STACJA......... EPWR - Wrocław-Strachowice (WRO)
POMIAR......... Wed Jul 27, 21:00 CEST
WIATR.......... zachodni północno-zachodni (WNW) z prędkością 31 km/h
WIDZIALNOŚĆ.... powyżej 10 kilometrów
CHMURY......... zachmurzenie niewielkie (1/8-2/8)
TEMPERATURA.... 23°C
T.PUNKTU ROSY.. 17°C
WILGOTNOŚĆ..... 69%
CIŚNIENIE...... 1014 hPa

Sprawdź też: Prognoza pogody Wrocław

Katowice-Pyrzowice (EPKT)

METAR = EPKT 271900Z 12005KT 9999 VCTS BKN040CB 21/17 Q1015

STACJA......... EPKT - Katowice-Pyrzowice (KTW)
POMIAR......... Wed Jul 27, 21:00 CEST
WIATR.......... wschodni południowo-wschodni (ESE) z prędkością 9 km/h
WIDZIALNOŚĆ.... powyżej 10 kilometrów
WARUNKI........ w pobliżu burza 
CHMURY......... zachmurzenie średnie (5/8-7/8)
TEMPERATURA.... 21°C
T.PUNKTU ROSY.. 17°C
WILGOTNOŚĆ..... 78%
CIŚNIENIE...... 1015 hPa

Sprawdź też: Prognoza pogody Katowice

Gdańsk (EPGD)

METAR = EPGD 271900Z 09005KT 050V130 CAVOK 19/16 Q1015

STACJA......... EPGD - Gdańsk im. Lecha Wałęsy (GDN)
POMIAR......... Wed Jul 27, 21:00 CEST
WIATR.......... wschodni (E) z prędkością 9 km/h
WIDZIALNOŚĆ.... powyżej 10 kilometrów
CHMURY......... bezchmurne niebo
TEMPERATURA.... 19°C
T.PUNKTU ROSY.. 16°C
WILGOTNOŚĆ..... 83%
CIŚNIENIE...... 1015 hPa

Sprawdź też: Prognoza pogody Gdańsk

Poznań-Ławica (EPPO)

METAR = EPPO 271900Z 30009KT 8000 -TSRA FEW010 BKN040CB 19/17 Q1015 RERA

STACJA......... EPPO - Poznań-Ławica (POZ)
POMIAR......... Wed Jul 27, 21:00 CEST
WIATR.......... zachodni północno-zachodni (WNW) z prędkością 17 km/h
WIDZIALNOŚĆ.... 8000 metrów
WARUNKI........ słaby: burza deszcz 
CHMURY......... zachmurzenie średnie (5/8-7/8)
TEMPERATURA.... 19°C
T.PUNKTU ROSY.. 17°C
WILGOTNOŚĆ..... 88%
CIŚNIENIE...... 1015 hPa
WCZEŚNIEJ...... obserwowane były zjawiska: deszcz

Sprawdź też: Prognoza pogody Poznań

Rzeszów-Jasionka (EPRZ)

METAR = EPRZ 271900Z 02005KT CAVOK 21/19 Q1015

STACJA......... EPRZ - Rzeszów-Jasionka (RZE)
POMIAR......... Wed Jul 27, 21:00 CEST
WIATR.......... północno północno-wschodni (NNE) z prędkością 9 km/h
WIDZIALNOŚĆ.... powyżej 10 kilometrów
CHMURY......... bezchmurne niebo
TEMPERATURA.... 21°C
T.PUNKTU ROSY.. 19°C
WILGOTNOŚĆ..... 88%
CIŚNIENIE...... 1015 hPa

Sprawdź też: Prognoza pogody Rzeszów

Szczecin-Goleniów (EPSC)

METAR = EPSC 271900Z 07009KT 030V090 9999 -SHRA SCT015CB 18/17 Q1012 RETS

STACJA......... EPSC - Szczecin-Goleniów (SZZ)
POMIAR......... Wed Jul 27, 21:00 CEST
WIATR.......... wschodni północno-wschodni (ENE) z prędkością 17 km/h
WIDZIALNOŚĆ.... powyżej 10 kilometrów
WARUNKI........ słaby: deszcz opad przelotny 
CHMURY......... zachmurzenie małe (3/8-4/8)
TEMPERATURA.... 18°C
T.PUNKTU ROSY.. 17°C
WILGOTNOŚĆ..... 94%
CIŚNIENIE...... 1012 hPa
WCZEŚNIEJ...... obserwowane były zjawiska: burza

Sprawdź też: Prognoza pogody Szczecin

Lublin-Świdnik (EPLB)

METAR = EPLB 271830Z 27004KT 8000 -TSRA FEW060CB 22/18 Q1015 =

STACJA......... EPLB - Lublin-Świdnik (LUZ)
POMIAR......... Wed Jul 27, 20:30 CEST
WIATR.......... zachodni (W) z prędkością 7 km/h
WIDZIALNOŚĆ.... 8000 metrów
WARUNKI........ słaby: burza deszcz 
CHMURY......... zachmurzenie niewielkie (1/8-2/8)
TEMPERATURA.... 22°C
T.PUNKTU ROSY.. 18°C
WILGOTNOŚĆ..... 78%
CIŚNIENIE...... 1015 hPa

Sprawdź też: Prognoza pogody Lublin

Bydgoszcz-Szwederowo (EPBY)

METAR = EPBY 271830Z 09004KT 9999 SCT045CB 20/19 Q1014 =

STACJA......... EPBY - Bydgoszcz-Szwederowo (BZG)
POMIAR......... Wed Jul 27, 20:30 CEST
WIATR.......... wschodni (E) z prędkością 7 km/h
WIDZIALNOŚĆ.... powyżej 10 kilometrów
CHMURY......... zachmurzenie małe (3/8-4/8)
TEMPERATURA.... 20°C
T.PUNKTU ROSY.. 19°C
WILGOTNOŚĆ..... 94%
CIŚNIENIE...... 1014 hPa

Sprawdź też: Prognoza pogody Bydgoszcz

Zielona Góra-Babimost (EPZG)

METAR = EPZG 271830Z VRB03KT 9999 FEW015 FEW059CB 20/17 Q1015 =

STACJA......... EPZG - Zielona Góra-Babimost (IEG)
POMIAR......... Wed Jul 27, 20:30 CEST
WIATR.......... zmienny z prędkością 6 km/h
WIDZIALNOŚĆ.... powyżej 10 kilometrów
CHMURY......... zachmurzenie niewielkie (1/8-2/8)
TEMPERATURA.... 20°C
T.PUNKTU ROSY.. 17°C
WILGOTNOŚĆ..... 83%
CIŚNIENIE...... 1015 hPa

Sprawdź też: Prognoza pogody Zielona Góra

Szymany Olsztyn-Mazury (EPSY)

METAR = EPSY 271830Z NIL=

STACJA......... EPSY - Olsztyn-Mazury (SZY)
POMIAR......... Wed Jul 27, 20:30 CEST
DEPESZA........ brak aktualnej prognozy w treści depeszy

Sprawdź też: Prognoza pogody Olsztyn